Time;durP1;ratioP1;P1;durP2;ratioP2;P2;SDS_P1;SDS_P2;PMS_P1;PMS_P2;Temp;Humidity;BMP_temperature;BMP_pressure;BME280_temperature;BME280_humidity;BME280_pressure;Samples;Min_cycle;Max_cycle;Signal;HPM_P1;HPM_P2
2024/02/29 00:00:11;;;;;;;125.13;48.92;;;;;;;0.98;100.00;96188.56;2106962;28;20458;-57
2024/02/29 00:01:12;;;;;;;123.00;47.00;;;;;;;0.99;100.00;96186.00;2106792;28;20046;-57
2024/02/29 00:02:14;;;;;;;142.82;52.53;;;;;;;1.01;100.00;96180.84;2106397;28;20051;-56
2024/02/29 00:03:15;;;;;;;135.80;54.75;;;;;;;1.00;100.00;96180.00;2106192;28;20051;-57
2024/02/29 00:04:16;;;;;;;138.27;54.42;;;;;;;1.02;100.00;96177.47;2106765;28;20047;-56
2024/02/29 00:05:17;;;;;;;140.27;55.20;;;;;;;1.01;100.00;96180.84;2106039;28;20040;-57
2024/02/29 00:06:19;;;;;;;120.60;50.90;;;;;;;0.97;100.00;96179.19;2106171;28;20052;-57
2024/02/29 00:07:21;;;;;;;129.43;54.85;;;;;;;0.92;100.00;96170.69;2106790;28;20047;-56
2024/02/29 00:08:22;;;;;;;130.88;49.28;;;;;;;0.91;100.00;96168.97;2106229;28;20415;-57
2024/02/29 00:09:23;;;;;;;129.35;50.70;;;;;;;0.89;100.00;96176.69;2106804;28;20044;-57
2024/02/29 00:10:24;;;;;;;131.98;54.17;;;;;;;0.92;100.00;96179.22;2105744;28;20048;-57
2024/02/29 00:11:25;;;;;;;125.43;53.13;;;;;;;0.88;100.00;96178.41;2097418;28;20104;-56
2024/02/29 00:12:27;;;;;;;137.27;54.30;;;;;;;0.87;100.00;96175.84;2098048;28;20044;-57
2024/02/29 00:13:28;;;;;;;176.00;61.63;;;;;;;0.86;100.00;96163.91;2106189;28;20055;-57
2024/02/29 00:14:29;;;;;;;150.05;57.30;;;;;;;0.92;100.00;96178.38;2106912;28;20487;-57
2024/02/29 00:15:30;;;;;;;137.95;55.15;;;;;;;0.84;100.00;96165.63;2106828;28;20498;-57
2024/02/29 00:16:31;;;;;;;136.82;54.13;;;;;;;0.83;100.00;96171.63;2105835;28;20055;-56
2024/02/29 00:17:32;;;;;;;132.82;53.90;;;;;;;0.82;100.00;96172.47;2106270;28;20043;-57
2024/02/29 00:18:34;;;;;;;140.48;55.55;;;;;;;0.80;100.00;96175.03;2105987;28;20052;-57
2024/02/29 00:19:35;;;;;;;138.98;53.45;;;;;;;0.76;100.00;96173.34;2106470;28;20411;-57
2024/02/29 00:20:36;;;;;;;137.70;54.10;;;;;;;0.70;100.00;96168.28;2106880;28;20036;-57
2024/02/29 00:21:38;;;;;;;175.18;59.03;;;;;;;0.64;100.00;96170.84;2105866;28;20044;-57
2024/02/29 00:22:39;;;;;;;181.43;59.55;;;;;;;0.62;100.00;96167.47;2106699;28;20051;-57
2024/02/29 00:23:42;;;;;;;161.48;59.33;;;;;;;0.59;100.00;96173.44;2097370;28;20044;-57
2024/02/29 00:24:43;;;;;;;166.30;57.95;;;;;;;0.61;100.00;96174.28;2097466;28;20488;-57
2024/02/29 00:25:45;;;;;;;163.43;59.67;;;;;;;0.61;100.00;96169.16;2106385;28;20040;-57
2024/02/29 00:26:46;;;;;;;160.88;58.30;;;;;;;0.66;100.00;96174.25;2106656;28;20046;-57
2024/02/29 00:27:47;;;;;;;165.80;60.35;;;;;;;0.76;100.00;96168.22;2106830;28;20048;-57
2024/02/29 00:28:48;;;;;;;159.13;61.55;;;;;;;0.76;100.00;96163.13;2105600;28;20381;-57
2024/02/29 00:29:49;;;;;;;152.68;60.13;;;;;;;0.76;100.00;96159.72;2105883;28;20052;-57
2024/02/29 00:30:51;;;;;;;158.82;57.45;;;;;;;0.81;100.00;96158.00;2105721;28;20353;-57
2024/02/29 00:31:52;;;;;;;159.40;58.92;;;;;;;0.80;100.00;96154.59;2106497;28;20454;-57
2024/02/29 00:32:55;;;;;;;163.63;58.58;;;;;;;0.78;100.00;96156.28;2105840;28;20059;-56
2024/02/29 00:33:56;;;;;;;150.02;49.13;;;;;;;0.78;100.00;96153.75;2106225;28;20043;-56
2024/02/29 00:34:57;;;;;;;155.30;52.60;;;;;;;0.82;100.00;96157.13;2106428;28;20039;-57
2024/02/29 00:35:58;;;;;;;162.43;57.40;;;;;;;0.87;100.00;96147.72;2106431;28;20047;-57
2024/02/29 00:36:59;;;;;;;150.05;51.63;;;;;;;0.84;100.00;96147.72;2106697;28;20058;-57
2024/02/29 00:38:00;;;;;;;166.15;56.28;;;;;;;0.88;100.00;96152.81;2106168;28;20392;-57
2024/02/29 00:39:01;;;;;;;152.88;55.95;;;;;;;0.93;100.00;96140.00;2106825;28;20028;-57
2024/02/29 00:40:03;;;;;;;173.85;55.60;;;;;;;0.98;100.00;96150.19;2107007;28;20036;-57
2024/02/29 00:41:04;;;;;;;162.27;55.53;;;;;;;0.98;100.00;96145.06;2105970;28;20051;-61
2024/02/29 00:42:05;;;;;;;145.20;57.50;;;;;;;0.95;100.00;96148.50;2106423;28;20404;-58
2024/02/29 00:43:08;;;;;;;166.55;60.38;;;;;;;0.99;100.00;96149.31;2097091;28;20047;-57
2024/02/29 00:44:09;;;;;;;179.73;61.88;;;;;;;0.99;100.00;96152.75;2097817;28;20040;-57
2024/02/29 00:45:10;;;;;;;169.43;61.88;;;;;;;0.93;100.00;96151.94;2105867;28;20051;-57
2024/02/29 00:46:11;;;;;;;168.38;62.42;;;;;;;0.90;100.00;96149.41;2106083;28;20052;-57
2024/02/29 00:47:12;;;;;;;173.35;61.03;;;;;;;0.91;100.00;96149.41;2106589;28;20048;-57
2024/02/29 00:48:14;;;;;;;167.00;57.38;;;;;;;0.95;100.00;96151.06;2097675;28;20040;-57
2024/02/29 00:49:15;;;;;;;153.00;50.05;;;;;;;0.95;100.00;96150.22;2097743;28;20032;-57
2024/02/29 00:50:16;;;;;;;163.95;53.50;;;;;;;1.00;100.00;96146.75;2097323;28;20049;-56
2024/02/29 00:51:18;;;;;;;186.38;57.70;;;;;;;1.02;100.00;96146.75;2097476;28;20052;-57
2024/02/29 00:52:19;;;;;;;162.85;51.55;;;;;;;1.03;100.00;96138.22;2106667;28;20059;-56
2024/02/29 00:53:20;;;;;;;179.13;60.33;;;;;;;0.99;100.00;96142.53;2106609;28;20040;-57
2024/02/29 00:54:24;;;;;;;169.15;53.25;;;;;;;0.96;100.00;96139.13;2106744;28;20399;-57
2024/02/29 00:55:25;;;;;;;169.55;60.40;;;;;;;0.96;100.00;96142.50;2106444;28;20476;-56
2024/02/29 00:56:26;;;;;;;156.50;48.65;;;;;;;0.94;100.00;96141.69;2106621;28;20036;-56
2024/02/29 00:57:27;;;;;;;177.15;60.20;;;;;;;0.92;100.00;96145.13;2106727;28;20403;-57
2024/02/29 00:58:29;;;;;;;179.82;62.75;;;;;;;0.92;100.00;96132.34;2105689;28;20040;-57
2024/02/29 00:59:30;;;;;;;178.15;64.57;;;;;;;0.88;100.00;96134.06;2106678;28;20092;-57
2024/02/29 01:00:31;;;;;;;174.70;63.63;;;;;;;0.92;100.00;96134.91;2105907;28;20048;-57
2024/02/29 01:01:32;;;;;;;172.23;63.28;;;;;;;0.91;100.00;96140.84;2105960;28;20071;-57
2024/02/29 01:02:33;;;;;;;177.95;65.93;;;;;;;0.88;100.00;96132.38;2105861;28;20048;-56
2024/02/29 01:03:35;;;;;;;179.02;60.95;;;;;;;0.88;100.00;96134.94;2105662;28;20048;-57
2024/02/29 01:04:36;;;;;;;171.23;61.65;;;;;;;0.86;100.00;96128.97;2097231;28;20146;-57
2024/02/29 01:05:38;;;;;;;174.85;62.42;;;;;;;0.86;100.00;96133.25;2097565;28;20047;-57
2024/02/29 01:06:39;;;;;;;176.73;61.38;;;;;;;0.89;100.00;96128.09;2105980;28;20067;-57
2024/02/29 01:07:41;;;;;;;177.35;60.30;;;;;;;0.90;100.00;96129.78;2106476;28;20044;-57
2024/02/29 01:08:42;;;;;;;172.20;61.38;;;;;;;0.90;100.00;96129.78;2106513;28;20055;-57
2024/02/29 01:09:44;;;;;;;175.50;61.30;;;;;;;0.89;100.00;96133.22;2106198;28;20491;-57
2024/02/29 01:10:46;;;;;;;168.20;62.88;;;;;;;0.92;100.00;96129.78;2105548;28;20051;-58
2024/02/29 01:11:48;;;;;;;155.30;58.80;;;;;;;0.98;100.00;96115.22;2106187;28;20048;-57
2024/02/29 01:12:49;;;;;;;171.85;61.45;;;;;;;1.05;100.00;96129.69;2105844;28;20499;-57
2024/02/29 01:13:50;;;;;;;162.60;63.00;;;;;;;1.03;100.00;96125.44;2105562;28;20488;-56
2024/02/29 01:14:51;;;;;;;160.93;58.75;;;;;;;1.07;100.00;96134.78;2105634;28;20040;-57
2024/02/29 01:15:52;;;;;;;162.18;61.15;;;;;;;1.06;100.00;96123.69;2105830;28;20044;-57
2024/02/29 01:16:56;;;;;;;145.85;58.25;;;;;;;1.05;100.00;96122.00;2106028;28;20055;-57
2024/02/29 01:17:57;;;;;;;147.45;55.38;;;;;;;1.01;100.00;96125.44;2105838;28;20052;-57
2024/02/29 01:19:00;;;;;;;146.40;55.80;;;;;;;0.99;100.00;96116.94;2106541;28;20051;-57
2024/02/29 01:20:01;;;;;;;169.60;61.70;;;;;;;1.00;100.00;96117.78;2105875;28;20071;-56
2024/02/29 01:21:03;;;;;;;155.40;57.65;;;;;;;1.01;100.00;96122.88;2105757;28;20040;-57
2024/02/29 01:22:05;;;;;;;159.98;55.78;;;;;;;1.05;100.00;96121.16;2105921;28;20044;-57
2024/02/29 01:23:06;;;;;;;162.27;56.33;;;;;;;1.09;100.00;96122.81;2106504;28;20039;-57
2024/02/29 01:24:07;;;;;;;164.25;60.38;;;;;;;1.06;100.00;96121.13;2106601;28;20044;-57
2024/02/29 01:25:10;;;;;;;165.35;58.05;;;;;;;1.06;100.00;96112.63;2105655;28;20047;-57
2024/02/29 01:26:11;;;;;;;154.85;52.25;;;;;;;1.12;100.00;96106.59;2097022;28;20056;-57
2024/02/29 01:27:12;;;;;;;145.68;56.83;;;;;;;1.08;100.00;96111.75;2097095;28;20079;-57
2024/02/29 01:28:13;;;;;;;163.60;54.95;;;;;;;1.05;100.00;96109.22;2105624;28;20542;-56
2024/02/29 01:29:14;;;;;;;158.75;57.22;;;;;;;1.01;100.00;96104.13;2106560;28;20047;-56
2024/02/29 01:30:16;;;;;;;148.77;56.80;;;;;;;1.05;100.00;96104.09;2107463;28;20063;-56
2024/02/29 01:31:17;;;;;;;151.20;51.95;;;;;;;1.08;100.00;96106.63;2108372;28;20040;-57
2024/02/29 01:32:18;;;;;;;157.43;54.45;;;;;;;1.12;100.00;96102.31;2098067;28;20060;-57
2024/02/29 01:33:19;;;;;;;147.10;51.10;;;;;;;1.12;100.00;96104.03;2098739;28;20052;-57
2024/02/29 01:34:21;;;;;;;147.57;55.15;;;;;;;1.06;100.00;96103.22;2107951;28;20043;-57
2024/02/29 01:35:22;;;;;;;132.23;53.45;;;;;;;0.97;100.00;96102.47;2108027;28;20044;-57
2024/02/29 01:36:23;;;;;;;122.18;49.03;;;;;;;0.90;100.00;96093.16;2108294;28;20051;-57
2024/02/29 01:37:24;;;;;;;152.70;55.78;;;;;;;0.83;100.00;96088.09;2107108;28;20431;-56
2024/02/29 01:38:25;;;;;;;134.95;51.47;;;;;;;0.79;100.00;96095.78;2107346;28;20048;-57
2024/02/29 01:39:26;;;;;;;148.88;51.95;;;;;;;0.77;100.00;96092.38;2107911;28;20043;-57
2024/02/29 01:40:27;;;;;;;141.18;50.92;;;;;;;0.79;100.00;96077.88;2107848;28;20044;-57
2024/02/29 01:41:28;;;;;;;150.80;55.88;;;;;;;0.76;100.00;96086.44;2107257;28;20511;-57
2024/02/29 01:42:29;;;;;;;148.07;53.78;;;;;;;0.76;100.00;96081.31;2108031;28;20036;-57
2024/02/29 01:43:31;;;;;;;159.55;54.65;;;;;;;0.79;100.00;96083.00;2108012;28;20044;-56
2024/02/29 01:44:32;;;;;;;144.30;53.88;;;;;;;0.82;100.00;96080.41;2107034;28;20074;-57
2024/02/29 01:45:33;;;;;;;137.15;48.60;;;;;;;0.91;100.00;96084.59;2107462;28;20052;-57
2024/02/29 01:46:34;;;;;;;138.93;46.60;;;;;;;0.95;100.00;96076.91;2107574;28;20036;-57
2024/02/29 01:47:35;;;;;;;150.23;52.20;;;;;;;0.94;100.00;96087.16;2106926;28;20048;-57
2024/02/29 01:48:36;;;;;;;138.85;54.92;;;;;;;0.90;100.00;96083.75;2107886;28;20408;-57
2024/02/29 01:49:37;;;;;;;163.82;59.70;;;;;;;0.81;100.00;96083.84;2098941;28;20036;-57
2024/02/29 01:50:38;;;;;;;157.63;58.25;;;;;;;0.74;100.00;96092.41;2090881;28;20044;-57
2024/02/29 01:51:40;;;;;;;141.10;54.72;;;;;;;0.66;100.00;96084.78;2090910;28;20037;-57
2024/02/29 01:52:41;;;;;;;152.60;56.20;;;;;;;0.59;100.00;96084.00;2098102;28;20488;-57
2024/02/29 01:53:42;;;;;;;141.65;56.55;;;;;;;0.65;100.00;96078.00;2098966;28;20043;-57
2024/02/29 01:54:43;;;;;;;145.85;55.92;;;;;;;0.73;100.00;96076.22;2098961;28;20048;-58
2024/02/29 01:55:45;;;;;;;160.07;58.25;;;;;;;0.71;100.00;96085.59;2098291;28;20056;-57
2024/02/29 01:56:46;;;;;;;171.38;60.40;;;;;;;0.62;100.00;96083.97;2090383;28;20040;-57
2024/02/29 01:57:47;;;;;;;153.43;57.20;;;;;;;0.56;100.00;96088.28;2090339;28;20500;-57
2024/02/29 01:58:48;;;;;;;157.63;58.58;;;;;;;0.56;100.00;96083.16;2090010;28;20044;-57
2024/02/29 01:59:49;;;;;;;163.00;60.53;;;;;;;0.49;100.00;96084.06;2098882;28;20055;-57
2024/02/29 02:00:51;;;;;;;149.30;54.97;;;;;;;0.49;100.00;96090.03;2098308;28;20063;-57
2024/02/29 02:01:52;;;;;;;153.45;56.40;;;;;;;0.50;100.00;96086.59;2098894;28;20040;-57
2024/02/29 02:02:53;;;;;;;143.32;55.53;;;;;;;0.54;100.00;96080.63;2090910;28;20037;-57
2024/02/29 02:03:54;;;;;;;171.60;58.75;;;;;;;0.54;100.00;96077.22;2081950;28;20057;-56
2024/02/29 02:04:55;;;;;;;168.48;57.20;;;;;;;0.55;100.00;96077.19;2096112;28;20035;-57
2024/02/29 02:05:56;;;;;;;162.73;57.50;;;;;;;0.54;100.00;96078.06;2091141;28;20033;-57
2024/02/29 02:06:58;;;;;;;154.68;54.38;;;;;;;0.53;100.00;96078.06;2090400;28;20041;-57
2024/02/29 02:07:59;;;;;;;162.85;59.08;;;;;;;0.51;100.00;96078.09;2090772;28;20053;-57
2024/02/29 02:09:00;;;;;;;155.98;56.00;;;;;;;0.50;100.00;96076.38;2090687;28;20092;-57
2024/02/29 02:10:06;;;;;;;159.45;57.03;;;;;;;0.45;100.00;96073.00;2090135;28;20477;-57
2024/02/29 02:11:08;;;;;;;150.70;55.00;;;;;;;0.43;100.00;96074.75;2090293;28;20041;-57
2024/02/29 02:12:10;;;;;;;155.10;53.20;;;;;;;0.41;100.00;96073.91;2082214;28;20403;-57
2024/02/29 02:13:11;;;;;;;165.02;52.30;;;;;;;0.39;100.00;96076.44;2082547;28;20037;-57
2024/02/29 02:14:12;;;;;;;172.00;56.13;;;;;;;0.36;100.00;96070.53;2090742;28;20056;-57
2024/02/29 02:15:13;;;;;;;168.23;60.15;;;;;;;0.34;100.00;96075.63;2090743;28;20543;-57
2024/02/29 02:16:14;;;;;;;178.02;57.88;;;;;;;0.36;100.00;96075.63;2091015;28;20401;-57
2024/02/29 02:17:16;;;;;;;187.88;61.95;;;;;;;0.37;100.00;96072.22;2091128;28;20029;-57
2024/02/29 02:18:17;;;;;;;173.30;58.90;;;;;;;0.39;100.00;96071.34;2091081;28;20036;-57
2024/02/29 02:19:18;;;;;;;167.63;59.88;;;;;;;0.44;100.00;96068.75;2090363;28;20060;-56
2024/02/29 02:20:19;;;;;;;183.55;59.05;;;;;;;0.39;100.00;96068.78;2090993;28;20420;-57
2024/02/29 02:21:20;;;;;;;168.23;58.75;;;;;;;0.39;100.00;96067.94;2090944;28;20400;-57
2024/02/29 02:22:21;;;;;;;157.13;57.40;;;;;;;0.39;100.00;96073.06;2091149;28;20029;-57
2024/02/29 02:23:22;;;;;;;175.95;59.70;;;;;;;0.40;100.00;96067.06;2081909;28;20053;-57
2024/02/29 02:24:24;;;;;;;171.57;59.50;;;;;;;0.41;100.00;96068.78;2082286;28;20053;-56
2024/02/29 02:25:25;;;;;;;170.60;58.97;;;;;;;0.44;100.00;96071.31;2090769;28;20045;-57
2024/02/29 02:26:26;;;;;;;173.15;57.42;;;;;;;0.46;100.00;96069.63;2090923;28;20492;-56
2024/02/29 02:27:27;;;;;;;171.75;58.97;;;;;;;0.48;100.00;96064.47;2090702;28;20037;-57
2024/02/29 02:28:29;;;;;;;170.85;59.13;;;;;;;0.49;100.00;96068.75;2090435;28;20421;-57
2024/02/29 02:29:30;;;;;;;174.57;60.83;;;;;;;0.46;100.00;96064.50;2090824;28;20045;-57
2024/02/29 02:30:31;;;;;;;178.48;60.38;;;;;;;0.47;100.00;96062.78;2090655;28;20052;-56
2024/02/29 02:31:32;;;;;;;166.63;56.67;;;;;;;0.44;100.00;96064.50;2091027;28;20045;-57
2024/02/29 02:32:36;;;;;;;165.40;57.80;;;;;;;0.43;100.00;96061.97;2090505;28;20056;-57
2024/02/29 02:33:38;;;;;;;186.10;60.10;;;;;;;0.41;100.00;96063.69;2090996;28;20048;-56
2024/02/29 02:34:39;;;;;;;181.38;62.38;;;;;;;0.39;100.00;96060.28;2089513;28;20396;-57
2024/02/29 02:35:40;;;;;;;173.82;59.40;;;;;;;0.39;100.00;96061.13;2089159;28;20045;-57
2024/02/29 02:36:41;;;;;;;180.70;62.70;;;;;;;0.39;100.00;96063.69;2089715;28;20056;-56
2024/02/29 02:37:42;;;;;;;164.60;58.55;;;;;;;0.38;100.00;96058.59;2090821;28;20036;-56
2024/02/29 02:38:43;;;;;;;165.18;57.67;;;;;;;0.34;100.00;96056.91;2090896;28;20401;-57
2024/02/29 02:39:44;;;;;;;168.40;55.15;;;;;;;0.33;100.00;96065.44;2090659;28;20048;-56
2024/02/29 02:40:45;;;;;;;162.02;56.75;;;;;;;0.33;100.00;96062.88;2090349;28;20040;-56
2024/02/29 02:41:48;;;;;;;177.48;58.67;;;;;;;0.38;100.00;96049.22;2090669;28;20067;-57
2024/02/29 02:42:49;;;;;;;184.00;59.60;;;;;;;0.42;100.00;96056.00;2090255;28;20049;-56
2024/02/29 02:43:50;;;;;;;167.43;59.50;;;;;;;0.43;100.00;96047.47;2090507;28;20071;-57
2024/02/29 02:44:51;;;;;;;172.20;59.33;;;;;;;0.43;100.00;96052.59;2090873;28;20409;-56
2024/02/29 02:45:52;;;;;;;160.18;56.70;;;;;;;0.42;100.00;96050.88;2090507;28;20041;-57
2024/02/29 02:46:53;;;;;;;182.77;60.22;;;;;;;0.42;100.00;96050.88;2081274;28;20037;-57
2024/02/29 02:47:55;;;;;;;155.15;58.25;;;;;;;0.41;100.00;96048.34;2081844;28;20068;-57
2024/02/29 02:48:56;;;;;;;142.02;56.85;;;;;;;0.37;100.00;96046.66;2091275;28;20047;-56
2024/02/29 02:49:57;;;;;;;186.00;66.20;;;;;;;0.34;100.00;96052.63;2091111;28;20048;-56
2024/02/29 02:50:58;;;;;;;162.65;58.58;;;;;;;0.29;100.00;96038.19;2091583;28;20037;-57
2024/02/29 02:51:59;;;;;;;141.55;55.25;;;;;;;0.30;100.00;96045.88;2091563;28;20044;-57
2024/02/29 02:53:01;;;;;;;157.68;56.38;;;;;;;0.30;100.00;96047.59;2091795;28;20481;-57
2024/02/29 02:54:03;;;;;;;149.43;54.00;;;;;;;0.35;100.00;96043.28;2090879;28;20036;-57
2024/02/29 02:55:04;;;;;;;155.80;55.90;;;;;;;0.40;100.00;96044.09;2090736;28;20048;-57
2024/02/29 02:56:05;;;;;;;145.50;54.05;;;;;;;0.42;100.00;96038.09;2090622;28;20052;-57
2024/02/29 02:57:06;;;;;;;183.02;61.97;;;;;;;0.48;100.00;96044.88;2090697;28;20036;-57
2024/02/29 02:58:07;;;;;;;155.27;56.97;;;;;;;0.49;100.00;96038.09;2090917;28;20040;-57
2024/02/29 02:59:09;;;;;;;136.35;52.85;;;;;;;0.57;100.00;96036.31;2090448;28;20405;-57
2024/02/29 03:00:10;;;;;;;145.15;56.28;;;;;;;0.60;100.00;96034.56;2090679;28;20041;-57
2024/02/29 03:01:11;;;;;;;144.60;56.65;;;;;;;0.65;100.00;96034.53;2090069;28;20079;-57
2024/02/29 03:02:12;;;;;;;145.30;53.88;;;;;;;0.66;100.00;96028.56;2090387;28;20060;-57
2024/02/29 03:03:14;;;;;;;141.50;54.00;;;;;;;0.69;100.00;96033.66;2090656;28;20052;-57
2024/02/29 03:04:15;;;;;;;146.13;56.03;;;;;;;0.70;100.00;96024.28;2090567;28;20052;-57
2024/02/29 03:05:17;;;;;;;138.07;52.00;;;;;;;0.71;100.00;96025.97;2096019;28;20048;-57
2024/02/29 03:06:18;;;;;;;139.45;52.67;;;;;;;0.74;100.00;96025.94;2098965;28;20051;-57
2024/02/29 03:07:19;;;;;;;133.48;53.30;;;;;;;0.77;100.00;96025.91;2098340;28;20048;-57
2024/02/29 03:08:21;;;;;;;129.35;52.50;;;;;;;0.80;100.00;96025.88;2098197;28;20045;-57
2024/02/29 03:09:22;;;;;;;130.32;52.50;;;;;;;0.83;100.00;96020.78;2098302;28;20052;-57
2024/02/29 03:10:23;;;;;;;129.98;50.60;;;;;;;0.85;100.00;96013.91;2099086;28;20037;-57
2024/02/29 03:11:24;;;;;;;143.80;54.47;;;;;;;0.92;100.00;96018.13;2098734;28;20047;-57
2024/02/29 03:12:26;;;;;;;136.45;51.95;;;;;;;0.96;100.00;96009.53;2098862;28;20055;-56
2024/02/29 03:13:27;;;;;;;145.10;53.75;;;;;;;1.00;100.00;96016.34;2098812;28;20052;-57
2024/02/29 03:14:28;;;;;;;121.70;50.15;;;;;;;0.99;100.00;96014.66;2098171;28;20404;-57
2024/02/29 03:15:29;;;;;;;137.93;51.20;;;;;;;1.00;100.00;96007.81;2098198;28;20044;-57
2024/02/29 03:16:33;;;;;;;123.45;51.85;;;;;;;0.99;100.00;96006.97;2098984;28;20052;-57
2024/02/29 03:17:34;;;;;;;122.05;50.20;;;;;;;1.01;100.00;96006.94;2090099;28;20047;-57
2024/02/29 03:18:35;;;;;;;115.60;48.72;;;;;;;0.99;100.00;96003.56;2090066;28;20044;-57
2024/02/29 03:19:36;;;;;;;128.55;51.30;;;;;;;1.00;100.00;96007.81;2099077;28;20484;-56
2024/02/29 03:20:37;;;;;;;121.80;49.60;;;;;;;1.02;100.00;96008.66;2099040;28;20047;-56
2024/02/29 03:21:38;;;;;;;129.02;50.90;;;;;;;1.01;100.00;96001.84;2089722;28;20060;-56
2024/02/29 03:22:40;;;;;;;125.95;49.95;;;;;;;1.01;100.00;96005.22;2089392;28;20428;-57
2024/02/29 03:23:41;;;;;;;121.85;49.65;;;;;;;1.02;100.00;96004.38;2098416;28;20052;-64
2024/02/29 03:24:43;;;;;;;119.22;49.28;;;;;;;1.02;100.00;95998.44;2098553;28;20510;-56
2024/02/29 03:25:44;;;;;;;117.18;49.13;;;;;;;1.01;100.00;96000.13;2098920;28;20051;-57
2024/02/29 03:26:46;;;;;;;120.68;50.90;;;;;;;1.01;100.00;95989.03;2098394;28;20052;-57
2024/02/29 03:27:48;;;;;;;134.88;50.35;;;;;;;1.03;100.00;95989.88;2098282;28;20048;-56
2024/02/29 03:28:49;;;;;;;119.82;48.33;;;;;;;1.02;100.00;95994.16;2098127;28;20079;-57
2024/02/29 03:29:50;;;;;;;112.05;48.28;;;;;;;1.07;100.00;95992.41;2098130;28;20052;-57
2024/02/29 03:30:53;;;;;;;131.20;51.53;;;;;;;1.06;100.00;95993.25;2098061;28;20044;-57
2024/02/29 03:31:54;;;;;;;125.85;52.38;;;;;;;1.01;100.00;95987.34;2098567;28;20037;-58
2024/02/29 03:32:55;;;;;;;132.45;50.40;;;;;;;0.92;100.00;95986.59;2098158;28;20055;-57
2024/02/29 03:33:56;;;;;;;127.10;48.78;;;;;;;0.86;100.00;95985.78;2098302;28;20054;-57
2024/02/29 03:34:57;;;;;;;145.43;53.58;;;;;;;0.87;100.00;95978.97;2098452;28;20499;-57
2024/02/29 03:36:00;;;;;;;139.35;50.97;;;;;;;0.83;100.00;95985.81;2098261;28;20049;-57
2024/02/29 03:37:01;;;;;;;134.68;48.60;;;;;;;0.83;100.00;95977.31;2098063;28;20051;-57
2024/02/29 03:38:02;;;;;;;130.45;51.63;;;;;;;0.83;100.00;95978.16;2098063;28;20116;-57
2024/02/29 03:39:07;;;;;;;121.22;49.58;;;;;;;0.84;100.00;95979.00;2089756;28;20033;-57
2024/02/29 03:40:08;;;;;;;124.70;50.65;;;;;;;0.84;100.00;95977.28;2089971;28;20045;-58
2024/02/29 03:41:09;;;;;;;121.47;46.55;;;;;;;0.86;100.00;95983.22;2098838;28;20037;-57
2024/02/29 03:42:11;;;;;;;114.32;45.40;;;;;;;0.90;100.00;95978.94;2099137;28;20043;-57
2024/02/29 03:43:12;;;;;;;112.32;45.65;;;;;;;0.93;100.00;95980.59;2098788;28;20400;-57
2024/02/29 03:44:13;;;;;;;114.22;45.63;;;;;;;0.94;100.00;95974.66;2098746;28;20476;-57
2024/02/29 03:45:14;;;;;;;119.60;47.30;;;;;;;0.99;100.00;95985.66;2098261;28;20044;-58
2024/02/29 03:46:15;;;;;;;120.50;49.22;;;;;;;0.98;100.00;95973.75;2098425;28;20041;-57
2024/02/29 03:47:17;;;;;;;114.40;46.88;;;;;;;1.01;100.00;95981.38;2096972;28;20059;-57
2024/02/29 03:48:18;;;;;;;124.57;47.72;;;;;;;1.01;100.00;95979.66;2098093;28;20052;-57
2024/02/29 03:49:19;;;;;;;119.25;48.33;;;;;;;1.04;100.00;95984.78;2089387;28;20044;-58
2024/02/29 03:50:20;;;;;;;125.63;49.72;;;;;;;1.07;100.00;95984.72;2089792;28;20051;-57
2024/02/29 03:51:22;;;;;;;116.45;49.17;;;;;;;1.11;100.00;95982.97;2098315;28;20048;-57
2024/02/29 03:52:23;;;;;;;116.28;48.60;;;;;;;1.12;100.00;95983.81;2097869;28;20052;-57
2024/02/29 03:53:24;;;;;;;121.97;48.03;;;;;;;1.12;100.00;95977.00;2098503;28;20050;-57
2024/02/29 03:54:26;;;;;;;116.63;47.80;;;;;;;1.16;100.00;95981.22;2097872;28;20381;-57
2024/02/29 03:55:27;;;;;;;121.35;49.22;;;;;;;1.17;100.00;95982.06;2098551;28;20499;-57
2024/02/29 03:56:28;;;;;;;114.15;46.83;;;;;;;1.18;100.00;95986.34;2098532;28;20048;-57
2024/02/29 03:57:29;;;;;;;114.47;48.63;;;;;;;1.17;100.00;95980.34;2098259;28;20048;-57
2024/02/29 03:58:30;;;;;;;115.75;48.85;;;;;;;1.18;100.00;95971.00;2097942;28;20048;-57
2024/02/29 03:59:32;;;;;;;128.82;52.65;;;;;;;1.23;100.00;95979.44;2098547;28;20044;-57
2024/02/29 04:00:33;;;;;;;113.50;46.50;;;;;;;1.25;100.00;95976.00;2098156;28;20052;-57
2024/02/29 04:01:35;;;;;;;119.70;45.58;;;;;;;1.28;100.00;95980.22;2098429;28;20044;-57
2024/02/29 04:02:39;;;;;;;116.18;48.20;;;;;;;1.29;100.00;95980.22;2098277;28;20044;-57
2024/02/29 04:03:41;;;;;;;116.22;48.88;;;;;;;1.29;100.00;95974.28;2098154;28;20408;-57
2024/02/29 04:04:42;;;;;;;117.88;48.45;;;;;;;1.30;100.00;95970.84;2097987;28;20488;-57
2024/02/29 04:05:43;;;;;;;116.53;45.67;;;;;;;1.34;100.00;95969.94;2097698;28;20059;-57
2024/02/29 04:06:44;;;;;;;112.30;47.08;;;;;;;1.35;100.00;95974.19;2098345;28;20047;-57
2024/02/29 04:07:45;;;;;;;112.28;44.22;;;;;;;1.35;100.00;95974.19;2098068;28;20049;-58
2024/02/29 04:08:46;;;;;;;125.43;49.45;;;;;;;1.38;100.00;95970.75;2088988;28;20476;-57
2024/02/29 04:09:47;;;;;;;117.13;44.45;;;;;;;1.42;100.00;95974.97;2089091;28;20041;-57
2024/02/29 04:10:50;;;;;;;111.32;47.45;;;;;;;1.38;100.00;95978.44;2097433;28;20051;-57
2024/02/29 04:11:51;;;;;;;118.82;45.75;;;;;;;1.35;100.00;95971.63;2089300;28;20481;-57
2024/02/29 04:12:52;;;;;;;122.75;49.10;;;;;;;1.37;100.00;95972.47;2080862;28;20441;-57
2024/02/29 04:13:54;;;;;;;120.03;50.30;;;;;;;1.38;100.00;95970.75;2089774;28;20025;-61
2024/02/29 04:14:55;;;;;;;115.03;46.92;;;;;;;1.32;100.00;95964.00;2098342;28;20044;-57
2024/02/29 04:15:56;;;;;;;118.43;46.22;;;;;;;1.34;100.00;95967.38;2097976;28;20040;-58
2024/02/29 04:16:57;;;;;;;111.32;45.85;;;;;;;1.37;100.00;95966.50;2098567;28;20033;-57
2024/02/29 04:17:59;;;;;;;115.47;47.38;;;;;;;1.37;100.00;95963.94;2097868;28;20374;-57
2024/02/29 04:19:00;;;;;;;113.00;45.58;;;;;;;1.39;100.00;95962.19;2098534;28;20031;-57
2024/02/29 04:20:02;;;;;;;108.03;44.70;;;;;;;1.35;100.00;95965.66;2098571;28;20077;-57
2024/02/29 04:21:03;;;;;;;107.30;44.63;;;;;;;1.33;100.00;95961.41;2097814;28;20044;-57
2024/02/29 04:22:04;;;;;;;116.30;47.05;;;;;;;1.37;100.00;95956.28;2089350;28;20125;-57
2024/02/29 04:23:05;;;;;;;116.45;46.35;;;;;;;1.37;100.00;95962.22;2088958;28;20489;-57
2024/02/29 04:24:06;;;;;;;103.25;40.15;;;;;;;1.33;100.00;95956.28;2098345;28;20032;-57
2024/02/29 04:25:10;;;;;;;113.88;46.90;;;;;;;1.33;100.00;95955.44;2098163;28;20052;-57
2024/02/29 04:26:11;;;;;;;117.72;43.97;;;;;;;1.32;100.00;95958.88;2097479;28;20404;-57
2024/02/29 04:27:13;;;;;;;115.30;46.08;;;;;;;1.31;100.00;95949.53;2098380;28;20044;-57
2024/02/29 04:28:14;;;;;;;121.53;46.90;;;;;;;1.36;100.00;95950.28;2098102;28;20048;-57
2024/02/29 04:29:15;;;;;;;111.07;43.67;;;;;;;1.35;100.00;95956.28;2097811;28;20045;-57
2024/02/29 04:30:16;;;;;;;119.47;48.80;;;;;;;1.33;100.00;95948.59;2098387;28;20033;-57
2024/02/29 04:31:17;;;;;;;119.53;48.65;;;;;;;1.35;100.00;95951.16;2097767;28;20396;-57
2024/02/29 04:32:20;;;;;;;121.05;47.13;;;;;;;1.36;100.00;95944.31;2097671;28;20415;-57
2024/02/29 04:33:21;;;;;;;109.55;44.17;;;;;;;1.40;100.00;95948.56;2089511;28;20051;-57
2024/02/29 04:34:22;;;;;;;114.60;46.90;;;;;;;1.43;100.00;95949.34;2089255;28;20041;-57
2024/02/29 04:35:23;;;;;;;120.45;48.13;;;;;;;1.48;100.00;95944.19;2098564;28;20036;-57
2024/02/29 04:36:24;;;;;;;120.78;47.80;;;;;;;1.50;100.00;95943.31;2098551;28;20396;-57
2024/02/29 04:37:25;;;;;;;111.38;46.33;;;;;;;1.54;100.00;95946.66;2098627;28;20028;-57
2024/02/29 04:38:26;;;;;;;114.07;47.45;;;;;;;1.55;100.00;95940.66;2098065;28;20057;-57